createdAt,value
2023-12-23T00:00:21.989Z,8.61
2023-12-23T00:02:51.667Z,8.58
2023-12-23T00:05:20.440Z,8.57
2023-12-23T00:07:49.226Z,8.57
2023-12-23T00:10:17.903Z,8.58
2023-12-23T00:12:46.302Z,8.59
2023-12-23T00:15:14.592Z,8.59
2023-12-23T00:17:44.529Z,8.58
2023-12-23T00:20:16.319Z,8.59
2023-12-23T00:22:44.709Z,8.58
2023-12-23T00:25:13.031Z,8.57
2023-12-23T00:27:41.327Z,8.56
2023-12-23T00:30:13.190Z,8.56
2023-12-23T00:32:42.235Z,8.55
2023-12-23T00:35:10.537Z,8.56
2023-12-23T00:37:40.310Z,8.56
2023-12-23T00:40:09.808Z,8.56
2023-12-23T00:42:38.590Z,8.55
2023-12-23T00:45:08.383Z,8.56
2023-12-23T00:47:38.550Z,8.56
2023-12-23T00:50:08.668Z,8.56
2023-12-23T00:52:37.170Z,8.56
2023-12-23T00:55:07.344Z,8.56
2023-12-23T00:57:35.571Z,8.55
2023-12-23T01:00:04.542Z,8.56
2023-12-23T01:02:32.937Z,8.55
2023-12-23T01:05:01.237Z,8.56
2023-12-23T01:07:29.597Z,8.54
2023-12-23T01:09:58.648Z,8.55
2023-12-23T01:12:29.086Z,8.55
2023-12-23T01:14:57.314Z,8.55
2023-12-23T01:17:25.626Z,8.54
2023-12-23T01:19:54.420Z,8.55
2023-12-23T01:22:22.927Z,8.55
2023-12-23T01:24:51.289Z,8.54
2023-12-23T01:27:19.813Z,8.52
2023-12-23T01:29:51.525Z,8.51
2023-12-23T01:32:19.999Z,8.51
2023-12-23T01:34:48.409Z,8.53
2023-12-23T01:37:16.854Z,8.53
2023-12-23T01:39:45.198Z,8.54
2023-12-23T01:42:14.673Z,8.52
2023-12-23T01:44:43.060Z,8.51
2023-12-23T01:47:13.501Z,8.50
2023-12-23T01:49:43.324Z,8.49
2023-12-23T01:52:12.414Z,8.47
2023-12-23T01:54:41.004Z,8.46
2023-12-23T01:57:09.330Z,8.44
2023-12-23T01:59:37.916Z,8.43
2023-12-23T02:02:07.678Z,8.41
2023-12-23T02:04:37.563Z,8.41
2023-12-23T02:07:06.137Z,8.41
2023-12-23T02:09:35.238Z,8.40
2023-12-23T02:12:13.935Z,8.40
2023-12-23T02:14:47.559Z,8.42
2023-12-23T02:17:16.471Z,8.42
2023-12-23T02:19:47.447Z,8.42
2023-12-23T02:22:17.147Z,8.42
2023-12-23T02:24:45.637Z,8.41
2023-12-23T02:27:17.129Z,8.41
2023-12-23T02:29:47.561Z,8.41
2023-12-23T02:32:17.033Z,8.42
2023-12-23T02:34:45.781Z,8.42
2023-12-23T02:37:14.112Z,8.43
2023-12-23T02:39:43.751Z,8.43
2023-12-23T02:42:12.253Z,8.43
2023-12-23T02:44:41.408Z,8.43
2023-12-23T02:47:09.882Z,8.41
2023-12-23T02:49:38.318Z,8.41
2023-12-23T02:52:07.103Z,8.40
2023-12-23T02:54:35.424Z,8.40
2023-12-23T02:57:05.272Z,8.38
2023-12-23T02:59:33.697Z,8.37
2023-12-23T03:02:02.051Z,8.40
2023-12-23T03:04:30.591Z,8.39
2023-12-23T03:06:58.993Z,8.39
2023-12-23T03:09:27.294Z,8.41
2023-12-23T03:11:55.877Z,8.42
2023-12-23T03:14:25.602Z,8.43
2023-12-23T03:16:54.005Z,8.43
2023-12-23T03:19:22.568Z,8.45
2023-12-23T03:21:51.122Z,8.46
2023-12-23T03:24:19.493Z,8.45
2023-12-23T03:26:47.956Z,8.44
2023-12-23T03:29:16.770Z,8.43
2023-12-23T03:31:46.667Z,8.46
2023-12-23T03:34:15.093Z,8.45
2023-12-23T03:36:43.404Z,8.43
2023-12-23T03:39:11.891Z,8.45
2023-12-23T03:41:40.196Z,8.45
2023-12-23T03:44:08.694Z,8.46
2023-12-23T03:46:37.170Z,8.48
2023-12-23T03:49:06.940Z,8.50
2023-12-23T03:51:35.357Z,8.52
2023-12-23T03:54:03.971Z,8.54
2023-12-23T03:56:32.528Z,8.57
2023-12-23T03:59:01.020Z,8.59
2023-12-23T04:01:29.370Z,8.63
2023-12-23T04:03:57.855Z,8.65
2023-12-23T04:06:28.271Z,8.68
2023-12-23T04:08:56.707Z,8.71
2023-12-23T04:11:25.092Z,8.74
2023-12-23T04:13:53.555Z,8.76
2023-12-23T04:16:22.776Z,8.77
2023-12-23T04:18:51.622Z,8.79
2023-12-23T04:21:19.879Z,8.80
2023-12-23T04:23:49.622Z,8.81
2023-12-23T04:26:18.122Z,8.82
2023-12-23T04:28:46.617Z,8.85
2023-12-23T04:31:15.279Z,8.88
2023-12-23T04:33:43.898Z,8.87
2023-12-23T04:36:12.508Z,8.88
2023-12-23T04:38:40.965Z,8.88
2023-12-23T04:41:10.663Z,8.89
2023-12-23T04:43:41.880Z,8.91
2023-12-23T04:46:10.352Z,8.92
2023-12-23T04:48:38.696Z,8.93
2023-12-23T04:51:07.145Z,8.93
2023-12-23T04:53:36.219Z,8.93
2023-12-23T04:56:04.873Z,8.92
2023-12-23T04:58:34.743Z,8.92
2023-12-23T05:01:03.641Z,8.92
2023-12-23T05:03:34.275Z,8.90
2023-12-23T05:06:03.044Z,8.91
2023-12-23T05:08:31.618Z,8.90
2023-12-23T05:11:00.233Z,8.90
2023-12-23T05:13:28.690Z,8.90
2023-12-23T05:15:58.419Z,8.91
2023-12-23T05:18:26.898Z,8.92
2023-12-23T05:20:55.409Z,8.93
2023-12-23T05:23:24.052Z,8.93
2023-12-23T05:25:54.415Z,8.94
2023-12-23T05:28:23.395Z,8.96
2023-12-23T05:30:51.771Z,8.95
2023-12-23T05:33:25.355Z,8.95
2023-12-23T05:35:53.882Z,8.96
2023-12-23T05:38:22.337Z,8.97
2023-12-23T05:40:50.826Z,8.98
2023-12-23T05:43:19.166Z,8.97
2023-12-23T05:45:47.978Z,8.98
2023-12-23T05:48:16.506Z,8.98
2023-12-23T05:50:46.400Z,8.98
2023-12-23T05:53:14.687Z,8.97
2023-12-23T05:55:43.177Z,8.97
2023-12-23T05:58:11.634Z,8.97
2023-12-23T06:00:39.921Z,8.98
2023-12-23T06:03:08.770Z,9.00
2023-12-23T06:05:37.217Z,9.00
2023-12-23T06:08:08.364Z,9.01
2023-12-23T06:10:47.361Z,9.01
2023-12-23T06:13:23.134Z,9.01
2023-12-23T06:15:51.428Z,9.01
2023-12-23T06:18:19.723Z,9.01
2023-12-23T06:20:48.118Z,9.03
2023-12-23T06:23:17.864Z,9.03
2023-12-23T06:25:46.103Z,9.02
2023-12-23T06:28:14.369Z,9.03
2023-12-23T06:30:43.205Z,9.04
2023-12-23T06:33:11.789Z,9.04
2023-12-23T06:35:40.091Z,9.06
2023-12-23T06:38:08.343Z,9.06
2023-12-23T06:40:38.018Z,9.07
2023-12-23T06:43:43.345Z,9.08
2023-12-23T06:45:54.972Z,9.08
2023-12-23T06:48:23.708Z,9.09
2023-12-23T06:50:52.134Z,9.08
2023-12-23T06:53:20.609Z,9.07
2023-12-23T06:55:50.328Z,9.07
2023-12-23T06:58:18.616Z,9.07
2023-12-23T07:00:46.953Z,9.07
2023-12-23T07:03:15.418Z,9.08
2023-12-23T07:05:43.911Z,9.09
2023-12-23T07:08:12.521Z,9.10
2023-12-23T07:10:40.930Z,9.11
2023-12-23T07:13:10.637Z,9.12
2023-12-23T07:15:38.902Z,9.12
2023-12-23T07:18:08.074Z,9.13
2023-12-23T07:20:36.452Z,9.12
2023-12-23T07:23:04.940Z,9.13
2023-12-23T07:25:33.232Z,9.12
2023-12-23T07:28:01.645Z,9.13
2023-12-23T07:30:31.309Z,9.12
2023-12-23T07:32:59.702Z,9.11
2023-12-23T07:35:28.583Z,9.12
2023-12-23T07:37:57.012Z,9.11
2023-12-23T07:40:27.137Z,9.12
2023-12-23T07:42:56.839Z,9.13
2023-12-23T07:45:25.272Z,9.13
2023-12-23T07:47:54.918Z,9.13
2023-12-23T07:50:23.883Z,9.12
2023-12-23T07:52:52.599Z,9.11
2023-12-23T07:55:21.061Z,9.10
2023-12-23T07:57:49.370Z,9.08
2023-12-23T08:00:18.934Z,9.07
2023-12-23T08:02:47.223Z,9.07
2023-12-23T08:05:17.509Z,9.06
2023-12-23T08:07:45.937Z,9.07
2023-12-23T08:10:14.348Z,9.05
2023-12-23T08:12:42.599Z,9.05
2023-12-23T08:15:11.518Z,9.04
2023-12-23T08:17:39.866Z,9.04
2023-12-23T08:20:09.209Z,9.05
2023-12-23T08:22:38.878Z,9.06
2023-12-23T08:25:07.438Z,9.07
2023-12-23T08:27:35.686Z,9.07
2023-12-23T08:30:03.995Z,9.09
2023-12-23T08:32:32.398Z,9.09
2023-12-23T08:35:00.872Z,9.10
2023-12-23T08:37:29.167Z,9.12
2023-12-23T08:39:58.799Z,9.13
2023-12-23T08:42:27.078Z,9.13
2023-12-23T08:44:56.110Z,9.14
2023-12-23T08:47:24.474Z,9.13
2023-12-23T08:49:52.719Z,9.15
2023-12-23T08:52:21.603Z,9.16
2023-12-23T08:54:49.855Z,9.18
2023-12-23T08:57:19.440Z,9.19
2023-12-23T08:59:47.679Z,9.19
2023-12-23T09:02:15.966Z,9.21
2023-12-23T09:04:44.266Z,9.20
2023-12-23T09:07:13.411Z,9.21
2023-12-23T09:09:41.826Z,9.22
2023-12-23T09:12:10.652Z,9.24
2023-12-23T09:14:40.506Z,9.24
2023-12-23T09:17:08.710Z,9.25
2023-12-23T09:19:36.981Z,9.26
2023-12-23T09:22:05.348Z,9.28
2023-12-23T09:24:33.571Z,9.31
2023-12-23T09:27:02.097Z,9.33
2023-12-23T09:29:30.595Z,9.35
2023-12-23T09:32:00.349Z,9.37
2023-12-23T09:34:28.710Z,9.37
2023-12-23T09:36:56.950Z,9.40
2023-12-23T09:39:25.272Z,9.41
2023-12-23T09:41:53.542Z,9.42
2023-12-23T09:44:22.179Z,9.43
2023-12-23T09:46:50.612Z,9.44
2023-12-23T09:49:20.408Z,9.46
2023-12-23T09:51:49.736Z,9.47
2023-12-23T09:54:22.121Z,9.49
2023-12-23T09:56:51.997Z,9.50
2023-12-23T09:59:21.316Z,9.51
2023-12-23T10:01:49.618Z,9.52
2023-12-23T10:04:17.916Z,9.53
2023-12-23T10:06:47.505Z,9.53
2023-12-23T10:09:16.398Z,9.55
2023-12-23T10:11:44.625Z,9.56
2023-12-23T10:14:13.947Z,9.57
2023-12-23T10:16:44.618Z,9.57
2023-12-23T10:19:14.567Z,9.55
2023-12-23T10:21:43.269Z,9.54
2023-12-23T10:24:12.835Z,9.55
2023-12-23T10:26:43.535Z,9.52
2023-12-23T10:29:12.447Z,9.50
2023-12-23T10:31:42.750Z,9.49
2023-12-23T10:34:14.088Z,9.48
2023-12-23T10:36:44.235Z,9.45
2023-12-23T10:39:21.431Z,9.43
2023-12-23T10:41:57.694Z,9.42
2023-12-23T10:44:28.272Z,9.43
2023-12-23T10:46:57.755Z,9.43
2023-12-23T10:49:26.514Z,9.43
2023-12-23T10:51:56.562Z,9.44
2023-12-23T10:54:28.688Z,9.44
2023-12-23T10:56:58.858Z,9.44
2023-12-23T10:59:27.192Z,9.43
2023-12-23T11:01:58.228Z,9.43
2023-12-23T11:04:28.448Z,9.42
2023-12-23T11:07:00.892Z,9.42
2023-12-23T11:09:32.665Z,9.42
2023-12-23T11:12:01.426Z,9.40
2023-12-23T11:14:31.196Z,9.39
2023-12-23T11:17:00.263Z,9.37
2023-12-23T11:19:28.660Z,9.35
2023-12-23T11:22:22.229Z,9.33
2023-12-23T11:24:52.093Z,9.33
2023-12-23T11:27:33.848Z,9.34
2023-12-23T11:30:04.874Z,9.34
2023-12-23T11:32:36.253Z,9.35
2023-12-23T11:35:06.899Z,9.35
2023-12-23T11:37:53.711Z,9.36
2023-12-23T11:40:23.940Z,9.35
2023-12-23T11:42:52.518Z,9.34
2023-12-23T11:45:21.381Z,9.35
2023-12-23T11:47:51.731Z,9.35
2023-12-23T11:50:19.981Z,9.36
2023-12-23T11:52:49.026Z,9.36
2023-12-23T11:55:18.746Z,9.37
2023-12-23T11:57:48.464Z,9.37
2023-12-23T12:00:17.548Z,9.39
2023-12-23T12:02:45.965Z,9.40
2023-12-23T12:05:14.464Z,9.40
2023-12-23T12:07:43.256Z,9.42
2023-12-23T12:10:15.236Z,9.46
2023-12-23T12:12:43.513Z,9.47
2023-12-23T12:15:13.339Z,9.49
2023-12-23T12:17:41.968Z,9.50
2023-12-23T12:20:11.416Z,9.54
2023-12-23T12:22:47.773Z,9.55
2023-12-23T12:25:17.340Z,9.59
2023-12-23T12:27:46.721Z,9.58
2023-12-23T12:30:16.360Z,9.60
2023-12-23T12:32:46.787Z,9.62
2023-12-23T12:35:16.215Z,9.64
2023-12-23T12:37:44.817Z,9.66
2023-12-23T12:40:14.197Z,9.67
2023-12-23T12:42:47.674Z,9.68
2023-12-23T12:45:17.284Z,9.70
2023-12-23T12:47:45.892Z,9.72
2023-12-23T12:50:14.273Z,9.74
2023-12-23T12:55:12.829Z,9.76
2023-12-23T12:57:41.528Z,9.77
2023-12-23T13:00:10.975Z,9.80
2023-12-23T13:02:40.655Z,9.81
2023-12-23T13:05:09.070Z,9.84
2023-12-23T13:07:37.322Z,9.86
2023-12-23T13:10:06.545Z,9.87
2023-12-23T13:12:34.827Z,9.89
2023-12-23T13:15:03.499Z,9.90
2023-12-23T13:17:31.836Z,9.91
2023-12-23T13:20:01.688Z,9.93
2023-12-23T13:22:30.698Z,9.95
2023-12-23T13:24:58.983Z,9.97
2023-12-23T13:27:29.975Z,9.98
2023-12-23T13:30:00.588Z,9.99
2023-12-23T13:32:29.860Z,10.01
2023-12-23T13:35:03.151Z,10.01
2023-12-23T13:37:33.918Z,10.03
2023-12-23T13:40:03.064Z,10.05
2023-12-23T13:42:32.232Z,10.07
2023-12-23T13:45:01.595Z,10.09
2023-12-23T13:47:31.286Z,10.10
2023-12-23T13:50:01.507Z,10.11
2023-12-23T13:52:31.000Z,10.13
2023-12-23T13:55:05.350Z,10.15
2023-12-23T13:57:34.750Z,10.14
2023-12-23T14:00:04.350Z,10.15
2023-12-23T14:02:36.368Z,10.18
2023-12-23T14:05:06.476Z,10.20
2023-12-23T14:07:35.712Z,10.21
2023-12-23T14:10:06.311Z,10.21
2023-12-23T14:12:34.896Z,10.21
2023-12-23T14:15:05.075Z,10.22
2023-12-23T14:17:34.840Z,10.22
2023-12-23T14:20:05.674Z,10.24
2023-12-23T14:22:34.209Z,10.24
2023-12-23T14:25:02.972Z,10.25
2023-12-23T14:27:32.952Z,10.27
2023-12-23T14:30:01.792Z,10.25
2023-12-23T14:32:31.231Z,10.26
2023-12-23T14:35:02.005Z,10.26
2023-12-23T14:37:35.548Z,10.27
2023-12-23T14:40:11.994Z,10.28
2023-12-23T14:42:42.532Z,10.28
2023-12-23T14:45:12.532Z,10.28
2023-12-23T14:47:41.376Z,10.28
2023-12-23T14:50:11.086Z,10.26
2023-12-23T14:52:40.242Z,10.28
2023-12-23T14:55:09.546Z,10.26
2023-12-23T14:57:39.660Z,10.26
2023-12-23T15:00:14.725Z,10.25
2023-12-23T15:02:43.532Z,10.24
2023-12-23T15:05:13.153Z,10.23
2023-12-23T15:07:43.009Z,10.22
2023-12-23T15:10:11.727Z,10.20
2023-12-23T15:12:40.039Z,10.21
2023-12-23T15:15:09.651Z,10.21
2023-12-23T15:17:39.536Z,10.20
2023-12-23T15:20:09.397Z,10.19
2023-12-23T15:22:37.692Z,10.17
2023-12-23T15:25:06.894Z,10.17
2023-12-23T15:27:35.114Z,10.15
2023-12-23T15:30:05.111Z,10.15
2023-12-23T15:32:33.734Z,10.15
2023-12-23T15:35:03.762Z,10.14
2023-12-23T15:37:32.137Z,10.12
2023-12-23T15:40:00.458Z,10.12
2023-12-23T15:42:54.405Z,10.11
2023-12-23T15:45:23.272Z,10.12
2023-12-23T15:47:51.878Z,10.11
2023-12-23T15:50:21.843Z,10.09
2023-12-23T15:52:50.328Z,10.07
2023-12-23T15:55:18.895Z,10.06
2023-12-23T15:57:47.139Z,10.05
2023-12-23T16:00:17.384Z,10.06
2023-12-23T16:02:46.173Z,10.04
2023-12-23T16:05:14.591Z,10.03
2023-12-23T16:07:45.074Z,10.02
2023-12-23T16:10:13.340Z,10.01
2023-12-23T16:12:41.777Z,10.00
2023-12-23T16:15:11.183Z,10.00
2023-12-23T16:17:39.598Z,10.01
2023-12-23T16:20:09.345Z,10.01
2023-12-23T16:22:38.041Z,10.00
2023-12-23T16:25:11.216Z,10.01
2023-12-23T16:27:39.538Z,10.01
2023-12-23T16:30:09.599Z,9.99
2023-12-23T16:32:38.154Z,9.98
2023-12-23T16:35:07.643Z,9.98
2023-12-23T16:37:36.149Z,9.96
2023-12-23T16:40:04.944Z,9.96
2023-12-23T16:42:35.346Z,9.97
2023-12-23T16:45:03.983Z,9.94
2023-12-23T16:47:32.716Z,9.94
2023-12-23T16:50:03.648Z,9.95
2023-12-23T16:52:35.801Z,9.96
2023-12-23T16:55:04.228Z,9.95
2023-12-23T16:57:34.064Z,9.94
2023-12-23T17:00:03.376Z,9.94
2023-12-23T17:02:32.262Z,9.93
2023-12-23T17:05:00.937Z,9.93
2023-12-23T17:07:29.192Z,9.93
2023-12-23T17:09:57.402Z,9.92
2023-12-23T17:12:25.646Z,9.91
2023-12-23T17:14:56.187Z,9.92
2023-12-23T17:17:24.610Z,9.92
2023-12-23T17:19:53.089Z,9.91
2023-12-23T17:22:24.394Z,9.90
2023-12-23T17:24:54.466Z,9.89
2023-12-23T17:27:22.688Z,9.88
2023-12-23T17:29:50.937Z,9.87
2023-12-23T17:32:21.574Z,9.89
2023-12-23T17:34:50.701Z,9.90
2023-12-23T17:37:18.941Z,9.89
2023-12-23T17:39:47.318Z,9.88
2023-12-23T17:42:16.214Z,9.86
2023-12-23T17:44:44.476Z,9.85
2023-12-23T17:47:12.879Z,9.86
2023-12-23T17:49:42.460Z,9.85
2023-12-23T17:52:10.719Z,9.86
2023-12-23T17:54:39.306Z,9.87
2023-12-23T17:57:09.347Z,9.87
2023-12-23T17:59:37.610Z,9.87
2023-12-23T18:02:05.836Z,9.88
2023-12-23T18:04:34.130Z,9.89
2023-12-23T18:07:03.727Z,9.91
2023-12-23T18:09:32.269Z,9.92
2023-12-23T18:12:00.544Z,9.93
2023-12-23T18:14:29.517Z,9.95
2023-12-23T18:16:58.001Z,9.96
2023-12-23T18:19:26.336Z,9.98
2023-12-23T18:21:54.595Z,9.98
2023-12-23T18:24:24.229Z,10.00
2023-12-23T18:26:52.477Z,10.00
2023-12-23T18:29:20.727Z,10.00
2023-12-23T18:31:49.167Z,10.01
2023-12-23T18:34:17.604Z,10.01
2023-12-23T18:36:46.040Z,10.03
2023-12-23T18:39:14.408Z,10.04
2023-12-23T18:41:43.939Z,10.06
2023-12-23T18:44:12.111Z,10.05
2023-12-23T18:46:40.413Z,10.07
2023-12-23T18:49:08.676Z,10.06
2023-12-23T18:51:37.211Z,10.07
2023-12-23T18:54:05.567Z,10.07
2023-12-23T18:56:33.916Z,10.08
2023-12-23T18:59:05.490Z,10.08
2023-12-23T19:01:33.813Z,10.07
2023-12-23T19:04:02.425Z,10.09
2023-12-23T19:06:30.664Z,10.12
2023-12-23T19:08:58.849Z,10.12
2023-12-23T19:11:27.067Z,10.14
2023-12-23T19:13:55.315Z,10.17
2023-12-23T19:16:24.878Z,10.15
2023-12-23T19:18:53.149Z,10.17
2023-12-23T19:21:21.476Z,10.18
2023-12-23T19:23:49.773Z,10.19
2023-12-23T19:26:27.375Z,10.20
2023-12-23T19:28:55.839Z,10.21
2023-12-23T19:31:25.423Z,10.22
2023-12-23T19:33:53.775Z,10.24
2023-12-23T19:36:22.525Z,10.25
2023-12-23T19:38:50.752Z,10.25
2023-12-23T19:41:18.983Z,10.27
2023-12-23T19:43:49.647Z,10.28
2023-12-23T19:46:18.024Z,10.29
2023-12-23T19:48:47.633Z,10.30
2023-12-23T19:51:16.511Z,10.32
2023-12-23T19:53:44.783Z,10.32
2023-12-23T19:56:13.840Z,10.34
2023-12-23T19:58:43.060Z,10.34
2023-12-23T20:01:11.300Z,10.36
2023-12-23T20:03:41.085Z,10.36
2023-12-23T20:06:12.719Z,10.36
2023-12-23T20:08:41.933Z,10.37
2023-12-23T20:11:10.217Z,10.36
2023-12-23T20:13:40.049Z,10.38
2023-12-23T20:16:08.505Z,10.39
2023-12-23T20:18:37.458Z,10.38
2023-12-23T20:21:05.965Z,10.37
2023-12-23T20:23:35.578Z,10.39
2023-12-23T20:26:03.910Z,10.40
2023-12-23T20:28:32.132Z,10.40
2023-12-23T20:31:00.383Z,10.42
2023-12-23T20:33:28.737Z,10.42
2023-12-23T20:35:57.104Z,10.43
2023-12-23T20:38:26.261Z,10.42
2023-12-23T20:40:55.881Z,10.41
2023-12-23T20:43:24.118Z,10.42
2023-12-23T20:45:52.336Z,10.41
2023-12-23T20:48:20.804Z,10.42
2023-12-23T20:50:49.169Z,10.42
2023-12-23T20:53:17.810Z,10.43
2023-12-23T20:55:47.253Z,10.41
2023-12-23T20:58:16.874Z,10.42
2023-12-23T21:00:45.179Z,10.41
2023-12-23T21:03:13.541Z,10.42
2023-12-23T21:05:41.966Z,10.41
2023-12-23T21:08:10.429Z,10.40
2023-12-23T21:10:41.098Z,10.38
2023-12-23T21:13:09.326Z,10.39
2023-12-23T21:15:38.963Z,10.40
2023-12-23T21:18:07.334Z,10.39
2023-12-23T21:20:35.625Z,10.39
2023-12-23T21:23:03.923Z,10.40
2023-12-23T21:25:32.169Z,10.40
2023-12-23T21:28:00.381Z,10.40
2023-12-23T21:30:28.624Z,10.40
2023-12-23T21:32:58.582Z,10.38
2023-12-23T21:35:28.340Z,10.39
2023-12-23T21:37:56.885Z,10.39
2023-12-23T21:40:25.063Z,10.39
2023-12-23T21:42:53.474Z,10.38
2023-12-23T21:45:21.941Z,10.38
2023-12-23T21:47:50.794Z,10.37
2023-12-23T21:50:21.233Z,10.36
2023-12-23T21:52:49.909Z,10.36
2023-12-23T21:55:18.379Z,10.36
2023-12-23T21:57:46.682Z,10.35
2023-12-23T22:00:15.889Z,10.33
2023-12-23T22:02:44.227Z,10.33
2023-12-23T22:05:12.601Z,10.33
2023-12-23T22:07:42.332Z,10.32
2023-12-23T22:10:13.586Z,10.30
2023-12-23T22:12:41.991Z,10.28
2023-12-23T22:15:10.995Z,10.27
2023-12-23T22:17:39.386Z,10.26
2023-12-23T22:20:08.696Z,10.25
2023-12-23T22:22:36.986Z,10.25
2023-12-23T22:25:07.569Z,10.25
2023-12-23T22:27:36.178Z,10.23
2023-12-23T22:30:05.304Z,10.24
2023-12-23T22:32:34.103Z,10.23
2023-12-23T22:35:02.670Z,10.24
2023-12-23T22:37:30.947Z,10.24
2023-12-23T22:40:00.661Z,10.23
2023-12-23T22:42:30.423Z,10.24
2023-12-23T22:44:58.747Z,10.23
2023-12-23T22:47:30.733Z,10.23
2023-12-23T22:49:59.179Z,10.22
2023-12-23T22:52:27.476Z,10.22
2023-12-23T22:54:55.751Z,10.24
2023-12-23T22:57:24.044Z,10.21
2023-12-23T22:59:54.316Z,10.21
2023-12-23T23:02:23.148Z,10.20
2023-12-23T23:04:51.478Z,10.20
2023-12-23T23:07:19.904Z,10.20
2023-12-23T23:09:48.212Z,10.21
2023-12-23T23:12:16.613Z,10.21
2023-12-23T23:14:44.973Z,10.22
2023-12-23T23:17:14.632Z,10.22
2023-12-23T23:19:43.863Z,10.21
2023-12-23T23:22:12.290Z,10.21
2023-12-23T23:24:40.566Z,10.21
2023-12-23T23:27:08.829Z,10.21
2023-12-23T23:29:37.890Z,10.19
2023-12-23T23:32:07.237Z,10.19
2023-12-23T23:34:36.841Z,10.18
2023-12-23T23:37:05.750Z,10.19
2023-12-23T23:39:36.643Z,10.21
2023-12-23T23:42:05.906Z,10.20
2023-12-23T23:44:34.280Z,10.19
2023-12-23T23:47:02.622Z,10.20
2023-12-23T23:49:31.363Z,10.21
2023-12-23T23:52:01.081Z,10.23
2023-12-23T23:54:30.722Z,10.23
2023-12-23T23:56:58.998Z,10.25
2023-12-23T23:59:27.282Z,10.25
